createdAt,value
2022-08-07T00:02:35.361Z,21.30
2022-08-07T00:04:09.212Z,21.30
2022-08-07T00:06:51.130Z,21.30
2022-08-07T00:09:22.568Z,21.30
2022-08-07T00:11:55.634Z,21.20
2022-08-07T00:14:25.375Z,21.30
2022-08-07T00:16:53.975Z,21.20
2022-08-07T00:19:26.104Z,21.20
2022-08-07T00:22:04.023Z,21.20
2022-08-07T00:24:32.683Z,21.20
2022-08-07T00:27:06.358Z,21.10
2022-08-07T00:29:37.190Z,21.10
2022-08-07T00:32:06.923Z,21.10
2022-08-07T00:34:35.603Z,21.10
2022-08-07T00:37:05.309Z,21.10
2022-08-07T00:39:34.021Z,21.10
2022-08-07T00:42:04.932Z,21.00
2022-08-07T00:44:34.028Z,21.00
2022-08-07T00:47:02.420Z,21.00
2022-08-07T00:50:20.813Z,21.00
2022-08-07T00:52:20.505Z,20.90
2022-08-07T00:54:53.573Z,20.90
2022-08-07T00:57:23.261Z,20.90
2022-08-07T00:59:54.185Z,20.80
2022-08-07T01:02:28.576Z,20.80
2022-08-07T01:04:59.248Z,20.80
2022-08-07T01:07:30.952Z,20.80
2022-08-07T01:10:06.897Z,20.80
2022-08-07T01:12:53.539Z,20.80
2022-08-07T01:16:01.214Z,20.70
2022-08-07T01:18:17.503Z,20.80
2022-08-07T01:20:57.355Z,20.70
2022-08-07T01:23:38.061Z,20.70
2022-08-07T01:26:12.084Z,20.70
2022-08-07T01:28:46.184Z,20.70
2022-08-07T01:31:21.310Z,20.70
2022-08-07T01:33:57.613Z,20.60
2022-08-07T01:36:33.327Z,20.60
2022-08-07T01:39:09.933Z,20.60
2022-08-07T01:42:07.735Z,20.60
2022-08-07T01:44:33.679Z,20.60
2022-08-07T01:47:14.376Z,20.50
2022-08-07T01:49:53.561Z,20.50
2022-08-07T01:52:25.430Z,20.50
2022-08-07T01:54:58.896Z,20.50
2022-08-07T01:58:06.895Z,20.50
2022-08-07T02:00:28.896Z,20.40
2022-08-07T02:03:18.324Z,20.40
2022-08-07T02:06:00.052Z,20.40
2022-08-07T02:08:40.487Z,20.40
2022-08-07T02:11:30.721Z,20.30
2022-08-07T02:14:07.258Z,20.30
2022-08-07T02:16:38.367Z,20.30
2022-08-07T02:20:05.511Z,20.30
2022-08-07T02:21:59.684Z,20.30
2022-08-07T02:24:29.925Z,20.20
2022-08-07T02:27:01.369Z,20.20
2022-08-07T02:29:32.825Z,20.20
2022-08-07T02:32:06.406Z,20.20
2022-08-07T02:34:51.056Z,20.20
2022-08-07T02:37:24.763Z,20.20
2022-08-07T02:40:11.449Z,20.20
2022-08-07T02:42:49.746Z,20.10
2022-08-07T02:45:59.145Z,20.10
2022-08-07T02:48:15.557Z,20.10
2022-08-07T02:50:49.397Z,20.00
2022-08-07T02:53:27.661Z,20.00
2022-08-07T02:56:03.997Z,20.00
2022-08-07T02:58:39.651Z,20.00
2022-08-07T03:01:19.153Z,20.00
2022-08-07T03:04:07.691Z,20.00
2022-08-07T03:06:41.957Z,20.00
2022-08-07T03:09:14.515Z,20.00
2022-08-07T03:12:03.785Z,20.00
2022-08-07T03:14:36.930Z,19.90
2022-08-07T03:17:06.139Z,19.90
2022-08-07T03:19:38.225Z,19.90
2022-08-07T03:22:18.699Z,19.90
2022-08-07T03:24:48.520Z,19.90
2022-08-07T03:27:30.677Z,19.90
2022-08-07T03:30:10.699Z,19.90
2022-08-07T03:32:49.166Z,19.80
2022-08-07T03:35:37.986Z,19.80
2022-08-07T03:38:21.449Z,20.00
2022-08-07T03:41:00.543Z,19.80
2022-08-07T03:43:32.354Z,19.70
2022-08-07T03:46:10.491Z,19.80
2022-08-07T03:49:02.473Z,19.80
2022-08-07T03:51:47.211Z,19.70
2022-08-07T03:54:35.726Z,19.70
2022-08-07T03:57:09.698Z,19.70
2022-08-07T04:00:01.701Z,19.70
2022-08-07T04:02:47.422Z,19.70
2022-08-07T04:05:39.734Z,19.70
2022-08-07T04:08:16.012Z,19.60
2022-08-07T04:10:54.865Z,19.60
2022-08-07T04:14:10.528Z,19.60
2022-08-07T04:16:31.607Z,19.60
2022-08-07T04:19:14.612Z,19.60
2022-08-07T04:21:59.433Z,19.60
2022-08-07T04:24:41.106Z,19.50
2022-08-07T04:27:20.615Z,19.50
2022-08-07T04:30:01.486Z,19.50
2022-08-07T04:32:44.753Z,19.50
2022-08-07T04:35:18.238Z,19.40
2022-08-07T04:38:03.951Z,19.40
2022-08-07T04:40:34.358Z,19.40
2022-08-07T04:43:03.543Z,19.40
2022-08-07T04:46:01.235Z,19.40
2022-08-07T04:48:44.769Z,19.40
2022-08-07T04:51:27.186Z,19.40
2022-08-07T04:54:06.621Z,19.30
2022-08-07T04:58:13.257Z,19.30
2022-08-07T05:00:12.833Z,19.30
2022-08-07T05:02:33.277Z,19.30
2022-08-07T05:05:11.471Z,19.30
2022-08-07T05:08:03.961Z,19.30
2022-08-07T05:10:40.212Z,19.30
2022-08-07T05:14:55.986Z,19.30
2022-08-07T05:16:07.778Z,19.30
2022-08-07T05:18:41.151Z,19.30
2022-08-07T05:21:14.563Z,19.30
2022-08-07T05:23:49.339Z,19.30
2022-08-07T05:26:24.375Z,19.30
2022-08-07T05:29:04.412Z,19.30
2022-08-07T05:31:38.468Z,19.30
2022-08-07T05:34:15.152Z,19.30
2022-08-07T05:36:52.604Z,19.30
2022-08-07T05:40:16.532Z,19.30
2022-08-07T05:42:33.367Z,19.30
2022-08-07T05:45:14.435Z,19.30
2022-08-07T05:48:02.158Z,19.40
2022-08-07T05:50:34.957Z,19.40
2022-08-07T05:53:07.731Z,19.40
2022-08-07T05:56:02.023Z,19.40
2022-08-07T05:58:36.350Z,19.40
2022-08-07T06:01:10.798Z,19.50
2022-08-07T06:03:56.562Z,19.50
2022-08-07T06:06:29.864Z,19.50
2022-08-07T06:09:05.074Z,19.50
2022-08-07T06:11:38.856Z,19.50
2022-08-07T06:14:11.989Z,19.50
2022-08-07T06:16:50.647Z,19.50
2022-08-07T06:19:58.315Z,19.50
2022-08-07T06:22:23.343Z,19.60
2022-08-07T06:25:10.177Z,19.60
2022-08-07T06:27:59.834Z,19.70
2022-08-07T06:30:35.206Z,19.70
2022-08-07T06:33:10.031Z,19.70
2022-08-07T06:36:06.852Z,19.70
2022-08-07T06:38:36.432Z,19.80
2022-08-07T06:41:13.016Z,19.80
2022-08-07T06:44:01.547Z,19.80
2022-08-07T06:46:36.374Z,19.90
2022-08-07T06:49:08.572Z,19.90
2022-08-07T06:51:49.557Z,19.90
2022-08-07T06:55:31.420Z,19.90
2022-08-07T06:57:13.557Z,20.00
2022-08-07T07:00:12.820Z,20.00
2022-08-07T07:02:53.516Z,20.00
2022-08-07T07:06:03.686Z,20.10
2022-08-07T07:08:18.507Z,20.10
2022-08-07T07:10:56.746Z,20.10
2022-08-07T07:13:56.072Z,20.10
2022-08-07T07:16:27.476Z,20.10
2022-08-07T07:19:54.775Z,20.10
2022-08-07T07:22:05.071Z,20.20
2022-08-07T07:24:56.889Z,20.20
2022-08-07T07:27:35.519Z,20.20
2022-08-07T07:30:38.071Z,20.30
2022-08-07T07:33:12.113Z,20.30
2022-08-07T07:36:04.849Z,20.30
2022-08-07T07:38:33.562Z,20.30
2022-08-07T07:41:08.512Z,20.40
2022-08-07T07:43:48.030Z,20.40
2022-08-07T07:46:37.128Z,20.40
2022-08-07T07:50:33.221Z,20.40
2022-08-07T07:52:12.921Z,20.40
2022-08-07T07:54:44.216Z,20.50
2022-08-07T07:57:51.559Z,20.50
2022-08-07T08:00:21.059Z,20.50
2022-08-07T08:03:06.219Z,20.50
2022-08-07T08:05:42.681Z,20.60
2022-08-07T08:08:34.328Z,20.60
2022-08-07T08:11:08.562Z,20.60
2022-08-07T08:13:52.946Z,20.60
2022-08-07T08:16:25.262Z,20.60
2022-08-07T08:18:56.575Z,20.70
2022-08-07T08:22:00.471Z,20.70
2022-08-07T08:25:04.564Z,20.70
2022-08-07T08:27:56.276Z,20.70
2022-08-07T08:30:26.973Z,20.70
2022-08-07T08:32:59.629Z,20.70
2022-08-07T08:35:39.533Z,20.80
2022-08-07T08:38:19.824Z,20.80
2022-08-07T08:40:58.928Z,20.80
2022-08-07T08:43:42.041Z,20.80
2022-08-07T08:46:18.033Z,20.90
2022-08-07T08:48:56.921Z,20.90
2022-08-07T08:52:00.782Z,20.90
2022-08-07T08:54:25.026Z,20.90
2022-08-07T08:56:55.735Z,20.90
2022-08-07T08:59:30.268Z,20.90
2022-08-07T09:02:36.784Z,21.00
2022-08-07T09:05:37.528Z,21.00
2022-08-07T09:08:28.654Z,20.70
2022-08-07T09:11:10.933Z,21.00
2022-08-07T09:14:02.027Z,21.00
2022-08-07T09:16:41.876Z,21.00
2022-08-07T09:19:51.533Z,21.00
2022-08-07T09:24:31.145Z,21.10
2022-08-07T09:25:42.251Z,21.10
2022-08-07T09:30:03.128Z,21.10
2022-08-07T09:31:21.943Z,21.10
2022-08-07T09:34:07.817Z,21.10
2022-08-07T09:36:42.965Z,21.10
2022-08-07T09:39:54.596Z,21.20
2022-08-07T09:42:34.304Z,21.20
2022-08-07T09:47:25.126Z,21.20
2022-08-07T09:48:14.562Z,21.20
2022-08-07T09:50:57.075Z,21.20
2022-08-07T09:53:40.839Z,21.20
2022-08-07T09:56:46.421Z,21.30
2022-08-07T09:59:46.198Z,21.30
2022-08-07T10:02:35.736Z,21.30
2022-08-07T10:05:29.637Z,21.40
2022-08-07T10:08:38.279Z,21.40
2022-08-07T10:11:16.522Z,21.40
2022-08-07T10:14:11.402Z,21.40
2022-08-07T10:17:01.591Z,21.40
2022-08-07T10:19:45.376Z,21.40
2022-08-07T10:22:39.346Z,21.50
2022-08-07T10:25:23.065Z,21.50
2022-08-07T10:28:18.487Z,21.50
2022-08-07T10:31:05.871Z,21.50
2022-08-07T10:34:06.309Z,21.50
2022-08-07T10:36:56.561Z,21.50
2022-08-07T10:39:41.982Z,21.60
2022-08-07T10:42:36.589Z,21.60
2022-08-07T10:45:44.050Z,21.60
2022-08-07T10:48:34.732Z,21.60
2022-08-07T10:51:16.598Z,21.60
2022-08-07T10:54:09.453Z,21.60
2022-08-07T10:56:47.415Z,21.60
2022-08-07T10:59:30.231Z,21.60
2022-08-07T11:02:12.329Z,21.70
2022-08-07T11:05:10.138Z,21.70
2022-08-07T11:07:58.772Z,21.70
2022-08-07T11:10:39.240Z,21.70
2022-08-07T11:13:16.917Z,21.70
2022-08-07T11:16:09.528Z,21.70
2022-08-07T11:18:43.859Z,21.80
2022-08-07T11:21:31.946Z,21.80
2022-08-07T11:24:08.754Z,21.80
2022-08-07T11:26:49.921Z,21.80
2022-08-07T11:29:42.856Z,21.80
2022-08-07T11:32:25.489Z,21.90
2022-08-07T11:34:58.578Z,21.90
2022-08-07T11:37:58.429Z,21.90
2022-08-07T11:40:49.648Z,21.90
2022-08-07T11:43:41.552Z,22.00
2022-08-07T11:46:25.096Z,22.00
2022-08-07T11:49:50.717Z,22.10
2022-08-07T11:52:20.656Z,22.10
2022-08-07T11:55:19.057Z,22.10
2022-08-07T11:58:16.082Z,22.10
2022-08-07T12:01:02.525Z,22.20
2022-08-07T12:03:54.250Z,22.20
2022-08-07T12:06:57.236Z,22.30
2022-08-07T12:09:36.626Z,22.40
2022-08-07T12:12:11.379Z,22.40
2022-08-07T12:14:56.294Z,22.40
2022-08-07T12:17:59.856Z,22.50
2022-08-07T12:20:39.237Z,22.50
2022-08-07T12:24:05.273Z,22.50
2022-08-07T12:26:34.392Z,22.60
2022-08-07T12:29:17.060Z,22.60
2022-08-07T12:32:03.638Z,22.60
2022-08-07T12:34:38.119Z,22.70
2022-08-07T12:37:16.856Z,22.70
2022-08-07T12:39:58.870Z,22.80
2022-08-07T12:42:32.161Z,22.80
2022-08-07T12:45:08.236Z,22.80
2022-08-07T12:47:43.953Z,22.90
2022-08-07T12:50:38.245Z,23.00
2022-08-07T12:53:18.612Z,23.00
2022-08-07T12:56:03.289Z,23.00
2022-08-07T12:58:39.535Z,23.00
2022-08-07T13:01:18.717Z,23.10
2022-08-07T13:04:05.023Z,23.10
2022-08-07T13:07:00.249Z,23.20
2022-08-07T13:10:21.725Z,23.30
2022-08-07T13:12:44.969Z,23.30
2022-08-07T13:15:29.673Z,23.30
2022-08-07T13:18:26.101Z,23.40
2022-08-07T13:21:02.826Z,23.50
2022-08-07T13:24:02.146Z,23.50
2022-08-07T13:26:36.948Z,23.50
2022-08-07T13:29:12.812Z,23.60
2022-08-07T13:31:57.837Z,23.60
2022-08-07T13:34:38.193Z,23.60
2022-08-07T13:37:30.746Z,23.70
2022-08-07T13:40:36.188Z,23.70
2022-08-07T13:43:06.421Z,23.70
2022-08-07T13:46:11.533Z,23.80
2022-08-07T13:48:35.265Z,23.80
2022-08-07T13:51:27.933Z,23.90
2022-08-07T13:54:01.807Z,23.90
2022-08-07T13:56:41.286Z,23.90
2022-08-07T13:59:25.544Z,24.00
2022-08-07T14:02:07.566Z,24.00
2022-08-07T14:04:50.282Z,24.10
2022-08-07T14:07:25.429Z,24.10
2022-08-07T14:10:12.608Z,24.20
2022-08-07T14:12:54.952Z,24.30
2022-08-07T14:15:34.953Z,24.30
2022-08-07T14:18:24.332Z,24.30
2022-08-07T14:21:11.737Z,24.30
2022-08-07T14:24:00.885Z,24.50
2022-08-07T14:26:37.581Z,24.50
2022-08-07T14:30:06.456Z,24.50
2022-08-07T14:32:07.847Z,24.60
2022-08-07T14:34:45.856Z,24.60
2022-08-07T14:37:17.071Z,24.60
2022-08-07T14:40:16.615Z,24.60
2022-08-07T14:45:46.724Z,24.70
2022-08-07T14:48:20.988Z,24.70
2022-08-07T14:50:52.277Z,24.80
2022-08-07T14:54:03.737Z,24.80
2022-08-07T14:56:14.037Z,24.70
2022-08-07T14:58:55.177Z,24.80
2022-08-07T15:01:42.966Z,24.80
2022-08-07T15:04:25.139Z,24.90
2022-08-07T15:06:54.907Z,24.90
2022-08-07T15:09:59.308Z,25.00
2022-08-07T15:12:26.196Z,25.00
2022-08-07T15:15:07.521Z,25.10
2022-08-07T15:17:55.054Z,25.20
2022-08-07T15:23:20.971Z,25.50
2022-08-07T15:26:11.207Z,25.60
2022-08-07T15:30:03.550Z,25.80
2022-08-07T15:31:57.646Z,25.90
2022-08-07T15:34:28.571Z,26.10
2022-08-07T15:37:06.458Z,26.30
2022-08-07T15:39:56.990Z,26.30
2022-08-07T15:42:46.644Z,26.40
2022-08-07T15:48:25.904Z,26.90
2022-08-07T15:51:09.542Z,27.10
2022-08-07T15:53:52.079Z,27.20
2022-08-07T15:56:24.691Z,27.50
2022-08-07T15:58:55.115Z,27.80
2022-08-07T16:01:38.967Z,28.00
2022-08-07T16:04:14.635Z,28.10
2022-08-07T16:06:52.274Z,28.30
2022-08-07T16:09:42.145Z,28.30
2022-08-07T16:12:29.140Z,28.40
2022-08-07T16:15:55.003Z,28.40
2022-08-07T16:18:10.790Z,28.30
2022-08-07T16:21:43.913Z,28.40
2022-08-07T16:24:34.232Z,28.40
2022-08-07T16:27:18.067Z,28.30
2022-08-07T16:30:30.723Z,28.20
2022-08-07T16:34:02.281Z,28.20
2022-08-07T16:36:18.312Z,28.10
2022-08-07T16:39:14.854Z,28.00
2022-08-07T16:42:12.503Z,27.80
2022-08-07T16:45:15.462Z,27.70
2022-08-07T16:49:10.451Z,27.70
2022-08-07T16:52:01.927Z,27.60
2022-08-07T16:54:34.457Z,27.40
2022-08-07T16:57:15.413Z,27.40
2022-08-07T16:59:52.585Z,27.30
2022-08-07T17:02:51.515Z,27.30
2022-08-07T17:06:19.605Z,27.20
2022-08-07T17:09:09.116Z,27.20
2022-08-07T17:12:04.552Z,27.10
2022-08-07T17:14:37.548Z,27.00
2022-08-07T17:17:15.093Z,26.90
2022-08-07T17:20:01.779Z,26.80
2022-08-07T17:22:42.467Z,26.70
2022-08-07T17:25:17.213Z,26.60
2022-08-07T17:28:01.517Z,26.50
2022-08-07T17:30:57.809Z,26.40
2022-08-07T17:34:09.983Z,26.30
2022-08-07T17:36:25.985Z,26.30
2022-08-07T17:39:10.678Z,26.20
2022-08-07T17:42:04.706Z,26.10
2022-08-07T17:44:54.607Z,26.00
2022-08-07T17:47:42.412Z,26.00
2022-08-07T17:50:19.311Z,25.90
2022-08-07T17:52:55.257Z,25.80
2022-08-07T17:56:00.279Z,25.80
2022-08-07T17:58:31.200Z,25.80
2022-08-07T18:01:20.809Z,25.70
2022-08-07T18:04:07.031Z,25.60
2022-08-07T18:07:19.012Z,25.50
2022-08-07T18:10:04.482Z,25.40
2022-08-07T18:12:39.144Z,25.00
2022-08-07T18:15:12.413Z,25.20
2022-08-07T18:18:46.373Z,25.10
2022-08-07T18:21:08.363Z,25.10
2022-08-07T18:23:58.879Z,25.00
2022-08-07T18:26:38.898Z,24.90
2022-08-07T18:30:07.818Z,24.80
2022-08-07T18:32:21.098Z,24.70
2022-08-07T18:35:15.830Z,24.70
2022-08-07T18:38:55.357Z,24.70
2022-08-07T18:41:08.128Z,24.60
2022-08-07T18:43:50.743Z,24.60
2022-08-07T18:46:32.278Z,24.50
2022-08-07T18:50:31.466Z,24.40
2022-08-07T18:52:35.318Z,24.40
2022-08-07T18:55:42.280Z,24.40
2022-08-07T18:58:34.282Z,24.40
2022-08-07T19:02:17.215Z,24.30
2022-08-07T19:04:09.882Z,24.30
2022-08-07T19:06:51.412Z,24.30
2022-08-07T19:09:55.682Z,24.20
2022-08-07T19:12:21.716Z,24.20
2022-08-07T19:16:02.955Z,24.10
2022-08-07T19:18:16.046Z,24.20
2022-08-07T19:21:09.397Z,24.10
2022-08-07T19:23:58.767Z,24.10
2022-08-07T19:27:08.938Z,24.10
2022-08-07T19:30:58.578Z,24.10
2022-08-07T19:32:43.765Z,24.10
2022-08-07T19:35:16.893Z,24.10
2022-08-07T19:37:57.192Z,24.10
2022-08-07T19:40:30.769Z,24.10
2022-08-07T19:43:09.670Z,24.10
2022-08-07T19:46:09.724Z,24.10
2022-08-07T19:48:42.849Z,24.10
2022-08-07T19:51:20.079Z,24.10
2022-08-07T19:54:31.864Z,24.00
2022-08-07T19:57:52.270Z,24.00
2022-08-07T19:59:40.744Z,24.00
2022-08-07T20:02:29.230Z,24.00
2022-08-07T20:05:00.505Z,24.00
2022-08-07T20:07:46.131Z,24.00
2022-08-07T20:10:37.370Z,23.90
2022-08-07T20:13:15.796Z,23.90
2022-08-07T20:15:55.319Z,23.90
2022-08-07T20:18:32.826Z,23.90
2022-08-07T20:21:21.334Z,23.90
2022-08-07T20:23:58.054Z,23.90
2022-08-07T20:26:38.620Z,23.90
2022-08-07T20:29:48.375Z,23.90
2022-08-07T20:32:11.408Z,23.90
2022-08-07T20:34:53.981Z,23.90
2022-08-07T20:37:29.505Z,23.90
2022-08-07T20:40:02.539Z,23.80
2022-08-07T20:42:34.426Z,23.80
2022-08-07T20:45:33.622Z,23.80
2022-08-07T20:47:58.581Z,23.70
2022-08-07T20:50:30.545Z,23.70
2022-08-07T20:52:59.602Z,23.70
2022-08-07T20:55:32.274Z,23.70
2022-08-07T20:58:11.959Z,23.70
2022-08-07T21:01:00.188Z,23.70
2022-08-07T21:03:34.729Z,23.90
2022-08-07T21:06:21.765Z,23.60
2022-08-07T21:09:07.573Z,23.60
2022-08-07T21:11:51.476Z,23.60
2022-08-07T21:14:32.704Z,23.60
2022-08-07T21:18:03.075Z,23.60
2022-08-07T21:20:05.147Z,23.60
2022-08-07T21:22:36.008Z,23.50
2022-08-07T21:25:13.406Z,23.50
2022-08-07T21:28:06.191Z,23.50
2022-08-07T21:30:51.433Z,23.50
2022-08-07T21:33:23.696Z,23.50
2022-08-07T21:36:12.063Z,23.50
2022-08-07T21:39:46.030Z,23.60
2022-08-07T21:42:47.067Z,23.40
2022-08-07T21:46:03.504Z,23.40
2022-08-07T21:48:03.450Z,23.30
2022-08-07T21:50:39.631Z,23.30
2022-08-07T21:53:31.689Z,23.30
2022-08-07T21:56:36.322Z,23.30
2022-08-07T21:59:06.790Z,23.30
2022-08-07T22:02:07.276Z,23.30
2022-08-07T22:04:38.216Z,23.30
2022-08-07T22:07:13.274Z,23.30
2022-08-07T22:09:54.305Z,23.30
2022-08-07T22:12:31.402Z,23.30
2022-08-07T22:16:42.598Z,23.20
2022-08-07T22:17:57.784Z,23.20
2022-08-07T22:20:35.336Z,23.20
2022-08-07T22:23:16.573Z,23.20
2022-08-07T22:26:02.597Z,23.20
2022-08-07T22:28:48.442Z,23.20
2022-08-07T22:31:59.291Z,23.20
2022-08-07T22:34:28.996Z,23.20
2022-08-07T22:37:09.302Z,23.10
2022-08-07T22:39:52.685Z,23.10
2022-08-07T22:42:29.746Z,23.10
2022-08-07T22:46:41.297Z,23.10
2022-08-07T22:48:31.372Z,23.10
2022-08-07T22:51:26.916Z,23.10
2022-08-07T22:54:20.640Z,23.10
2022-08-07T22:57:01.996Z,23.00
2022-08-07T22:59:50.100Z,23.10
2022-08-07T23:02:30.293Z,23.00
2022-08-07T23:06:09.091Z,23.00
2022-08-07T23:08:24.354Z,23.00
2022-08-07T23:11:13.009Z,23.00
2022-08-07T23:14:15.624Z,23.00
2022-08-07T23:17:02.905Z,23.00
2022-08-07T23:20:08.256Z,22.90
2022-08-07T23:22:49.561Z,22.90
2022-08-07T23:25:33.530Z,22.90
2022-08-07T23:28:22.499Z,22.90
2022-08-07T23:31:13.802Z,22.80
2022-08-07T23:34:35.851Z,22.80
2022-08-07T23:37:20.396Z,22.80
2022-08-07T23:40:12.664Z,22.80
2022-08-07T23:42:55.631Z,22.80
2022-08-07T23:45:33.573Z,22.80
2022-08-07T23:48:36.885Z,22.70
2022-08-07T23:52:58.253Z,22.70
2022-08-07T23:54:19.882Z,22.70
2022-08-07T23:57:11.106Z,22.70
